sensor_id;sensor_type;location;lat;lon;timestamp;temperature;humidity
21744;DHT22;11034;48.556;9.342;2023-06-24T00:01:49;17.00;99.90
21744;DHT22;11034;48.556;9.342;2023-06-24T00:04:17;17.00;99.90
21744;DHT22;11034;48.556;9.342;2023-06-24T00:06:46;17.00;99.90
21744;DHT22;11034;48.556;9.342;2023-06-24T00:09:14;17.00;99.90
21744;DHT22;11034;48.556;9.342;2023-06-24T00:11:42;17.00;99.90
21744;DHT22;11034;48.556;9.342;2023-06-24T00:14:11;17.00;99.90
21744;DHT22;11034;48.556;9.342;2023-06-24T00:16:41;17.00;99.90
21744;DHT22;11034;48.556;9.342;2023-06-24T00:19:11;17.00;99.90
21744;DHT22;11034;48.556;9.342;2023-06-24T00:21:40;16.90;99.90
21744;DHT22;11034;48.556;9.342;2023-06-24T00:24:08;16.90;99.90
21744;DHT22;11034;48.556;9.342;2023-06-24T00:26:36;16.80;99.90
21744;DHT22;11034;48.556;9.342;2023-06-24T00:29:04;16.60;99.90
21744;DHT22;11034;48.556;9.342;2023-06-24T00:31:32;16.50;99.90
21744;DHT22;11034;48.556;9.342;2023-06-24T00:34:01;16.40;99.90
21744;DHT22;11034;48.556;9.342;2023-06-24T00:36:30;16.20;99.90
21744;DHT22;11034;48.556;9.342;2023-06-24T00:38:59;16.00;99.90
21744;DHT22;11034;48.556;9.342;2023-06-24T00:41:30;15.80;99.90
21744;DHT22;11034;48.556;9.342;2023-06-24T00:43:59;15.60;99.90
21744;DHT22;11034;48.556;9.342;2023-06-24T00:46:27;15.50;99.90
21744;DHT22;11034;48.556;9.342;2023-06-24T00:48:58;15.50;99.90
21744;DHT22;11034;48.556;9.342;2023-06-24T00:51:27;15.40;99.90
21744;DHT22;11034;48.556;9.342;2023-06-24T00:53:58;15.30;99.90
21744;DHT22;11034;48.556;9.342;2023-06-24T00:56:30;15.20;99.90
21744;DHT22;11034;48.556;9.342;2023-06-24T00:58:59;15.10;99.90
21744;DHT22;11034;48.556;9.342;2023-06-24T01:01:28;15.30;99.90
21744;DHT22;11034;48.556;9.342;2023-06-24T01:03:58;15.70;99.90
21744;DHT22;11034;48.556;9.342;2023-06-24T01:06:27;16.10;99.90
21744;DHT22;11034;48.556;9.342;2023-06-24T01:08:57;16.20;99.90
21744;DHT22;11034;48.556;9.342;2023-06-24T01:11:27;16.10;99.90
21744;DHT22;11034;48.556;9.342;2023-06-24T01:13:55;16.10;99.90
21744;DHT22;11034;48.556;9.342;2023-06-24T01:16:28;16.10;99.90
21744;DHT22;11034;48.556;9.342;2023-06-24T01:19:05;16.00;99.90
21744;DHT22;11034;48.556;9.342;2023-06-24T01:21:46;16.00;99.90
21744;DHT22;11034;48.556;9.342;2023-06-24T01:24:34;15.90;99.90
21744;DHT22;11034;48.556;9.342;2023-06-24T01:27:34;15.60;99.90
21744;DHT22;11034;48.556;9.342;2023-06-24T01:33:09;15.50;99.90
21744;DHT22;11034;48.556;9.342;2023-06-24T01:35:38;15.60;99.90
21744;DHT22;11034;48.556;9.342;2023-06-24T01:38:10;15.60;99.90
21744;DHT22;11034;48.556;9.342;2023-06-24T01:40:43;15.70;99.90
21744;DHT22;11034;48.556;9.342;2023-06-24T01:43:13;15.80;99.90
21744;DHT22;11034;48.556;9.342;2023-06-24T01:45:45;15.80;99.90
21744;DHT22;11034;48.556;9.342;2023-06-24T01:48:16;15.90;99.90
21744;DHT22;11034;48.556;9.342;2023-06-24T01:50:52;15.80;99.90
21744;DHT22;11034;48.556;9.342;2023-06-24T01:53:22;15.70;99.90
21744;DHT22;11034;48.556;9.342;2023-06-24T01:55:52;15.50;99.90
21744;DHT22;11034;48.556;9.342;2023-06-24T01:58:21;15.30;99.90
21744;DHT22;11034;48.556;9.342;2023-06-24T02:00:50;15.30;99.90
21744;DHT22;11034;48.556;9.342;2023-06-24T02:03:21;15.20;99.90
21744;DHT22;11034;48.556;9.342;2023-06-24T02:05:51;15.20;99.90
21744;DHT22;11034;48.556;9.342;2023-06-24T02:08:20;15.20;99.90
21744;DHT22;11034;48.556;9.342;2023-06-24T02:10:50;15.20;99.90
21744;DHT22;11034;48.556;9.342;2023-06-24T02:13:19;15.30;99.90
21744;DHT22;11034;48.556;9.342;2023-06-24T02:15:49;15.30;99.90
21744;DHT22;11034;48.556;9.342;2023-06-24T02:18:20;15.30;99.90
21744;DHT22;11034;48.556;9.342;2023-06-24T02:20:51;15.30;99.90
21744;DHT22;11034;48.556;9.342;2023-06-24T02:23:20;15.30;99.90
21744;DHT22;11034;48.556;9.342;2023-06-24T02:25:49;15.50;99.90
21744;DHT22;11034;48.556;9.342;2023-06-24T02:28:18;15.70;99.90
21744;DHT22;11034;48.556;9.342;2023-06-24T02:30:47;15.80;99.90
21744;DHT22;11034;48.556;9.342;2023-06-24T02:33:15;15.80;99.90
21744;DHT22;11034;48.556;9.342;2023-06-24T02:35:45;15.90;99.90
21744;DHT22;11034;48.556;9.342;2023-06-24T02:38:13;16.00;99.90
21744;DHT22;11034;48.556;9.342;2023-06-24T02:40:43;16.00;99.90
21744;DHT22;11034;48.556;9.342;2023-06-24T02:43:11;16.00;99.90
21744;DHT22;11034;48.556;9.342;2023-06-24T02:45:40;16.00;99.90
21744;DHT22;11034;48.556;9.342;2023-06-24T02:48:09;15.90;99.90
21744;DHT22;11034;48.556;9.342;2023-06-24T02:50:37;15.90;99.90
21744;DHT22;11034;48.556;9.342;2023-06-24T02:53:08;15.90;99.90
21744;DHT22;11034;48.556;9.342;2023-06-24T02:55:38;16.00;99.90
21744;DHT22;11034;48.556;9.342;2023-06-24T02:58:08;16.00;99.90
21744;DHT22;11034;48.556;9.342;2023-06-24T03:00:37;15.90;99.90
21744;DHT22;11034;48.556;9.342;2023-06-24T03:03:06;15.70;99.90
21744;DHT22;11034;48.556;9.342;2023-06-24T03:05:35;15.50;99.90
21744;DHT22;11034;48.556;9.342;2023-06-24T03:08:04;15.30;99.90
21744;DHT22;11034;48.556;9.342;2023-06-24T03:10:36;15.10;99.90
21744;DHT22;11034;48.556;9.342;2023-06-24T03:13:04;15.00;99.90
21744;DHT22;11034;48.556;9.342;2023-06-24T03:15:32;14.90;99.90
21744;DHT22;11034;48.556;9.342;2023-06-24T03:18:01;14.80;99.90
21744;DHT22;11034;48.556;9.342;2023-06-24T03:20:29;14.70;99.90
21744;DHT22;11034;48.556;9.342;2023-06-24T03:23:02;14.60;99.90
21744;DHT22;11034;48.556;9.342;2023-06-24T03:25:30;14.50;99.90
21744;DHT22;11034;48.556;9.342;2023-06-24T03:28:00;14.50;99.90
21744;DHT22;11034;48.556;9.342;2023-06-24T03:30:30;14.60;99.90
21744;DHT22;11034;48.556;9.342;2023-06-24T03:32:58;14.70;99.90
21744;DHT22;11034;48.556;9.342;2023-06-24T03:35:26;14.90;99.90
21744;DHT22;11034;48.556;9.342;2023-06-24T03:37:54;14.90;99.90
21744;DHT22;11034;48.556;9.342;2023-06-24T03:40:22;15.00;99.90
21744;DHT22;11034;48.556;9.342;2023-06-24T03:42:50;15.10;99.90
21744;DHT22;11034;48.556;9.342;2023-06-24T03:45:19;15.10;99.90
21744;DHT22;11034;48.556;9.342;2023-06-24T03:47:47;15.10;99.90
21744;DHT22;11034;48.556;9.342;2023-06-24T03:50:15;15.30;99.90
21744;DHT22;11034;48.556;9.342;2023-06-24T03:52:43;15.30;99.90
21744;DHT22;11034;48.556;9.342;2023-06-24T03:55:11;15.40;99.90
21744;DHT22;11034;48.556;9.342;2023-06-24T03:57:39;15.40;99.90
21744;DHT22;11034;48.556;9.342;2023-06-24T04:00:08;15.50;99.90
21744;DHT22;11034;48.556;9.342;2023-06-24T04:02:45;15.50;99.90
21744;DHT22;11034;48.556;9.342;2023-06-24T04:05:13;15.60;99.90
21744;DHT22;11034;48.556;9.342;2023-06-24T04:07:41;16.00;99.90
21744;DHT22;11034;48.556;9.342;2023-06-24T04:10:14;16.50;99.90
21744;DHT22;11034;48.556;9.342;2023-06-24T04:12:42;17.20;99.90
21744;DHT22;11034;48.556;9.342;2023-06-24T04:15:10;17.50;99.90
21744;DHT22;11034;48.556;9.342;2023-06-24T04:17:38;18.00;99.90
21744;DHT22;11034;48.556;9.342;2023-06-24T04:20:09;18.40;99.90
21744;DHT22;11034;48.556;9.342;2023-06-24T04:22:37;18.80;99.90
21744;DHT22;11034;48.556;9.342;2023-06-24T04:25:06;18.60;99.90
21744;DHT22;11034;48.556;9.342;2023-06-24T04:27:35;19.30;99.90
21744;DHT22;11034;48.556;9.342;2023-06-24T04:30:04;20.00;99.90
21744;DHT22;11034;48.556;9.342;2023-06-24T04:32:32;19.60;99.90
21744;DHT22;11034;48.556;9.342;2023-06-24T04:35:00;19.70;99.90
21744;DHT22;11034;48.556;9.342;2023-06-24T04:37:29;20.20;99.90
21744;DHT22;11034;48.556;9.342;2023-06-24T04:39:58;20.50;99.90
21744;DHT22;11034;48.556;9.342;2023-06-24T04:42:26;20.30;99.90
21744;DHT22;11034;48.556;9.342;2023-06-24T04:44:54;20.70;99.90
21744;DHT22;11034;48.556;9.342;2023-06-24T04:47:22;21.20;99.90
21744;DHT22;11034;48.556;9.342;2023-06-24T04:49:50;21.30;99.90
21744;DHT22;11034;48.556;9.342;2023-06-24T04:52:18;21.30;99.90
21744;DHT22;11034;48.556;9.342;2023-06-24T04:54:47;21.50;99.90
21744;DHT22;11034;48.556;9.342;2023-06-24T04:57:23;21.90;99.90
21744;DHT22;11034;48.556;9.342;2023-06-24T04:59:52;22.70;99.90
21744;DHT22;11034;48.556;9.342;2023-06-24T05:02:20;23.30;99.90
21744;DHT22;11034;48.556;9.342;2023-06-24T05:04:48;22.30;99.90
21744;DHT22;11034;48.556;9.342;2023-06-24T05:07:16;22.90;99.90
21744;DHT22;11034;48.556;9.342;2023-06-24T05:09:46;22.10;99.90
21744;DHT22;11034;48.556;9.342;2023-06-24T05:12:15;22.80;99.90
21744;DHT22;11034;48.556;9.342;2023-06-24T05:14:43;23.40;99.90
21744;DHT22;11034;48.556;9.342;2023-06-24T05:17:11;23.90;99.90
21744;DHT22;11034;48.556;9.342;2023-06-24T05:19:39;23.80;99.90
21744;DHT22;11034;48.556;9.342;2023-06-24T05:22:07;24.20;99.90
21744;DHT22;11034;48.556;9.342;2023-06-24T05:24:35;24.20;99.90
21744;DHT22;11034;48.556;9.342;2023-06-24T05:27:08;24.10;99.90
21744;DHT22;11034;48.556;9.342;2023-06-24T05:29:36;24.30;99.90
21744;DHT22;11034;48.556;9.342;2023-06-24T05:32:05;23.70;99.90
21744;DHT22;11034;48.556;9.342;2023-06-24T05:34:33;23.00;99.90
21744;DHT22;11034;48.556;9.342;2023-06-24T05:37:02;22.70;99.90
21744;DHT22;11034;48.556;9.342;2023-06-24T05:39:31;23.00;99.90
21744;DHT22;11034;48.556;9.342;2023-06-24T05:41:59;22.60;99.90
21744;DHT22;11034;48.556;9.342;2023-06-24T05:44:28;22.50;99.90
21744;DHT22;11034;48.556;9.342;2023-06-24T05:46:57;22.50;99.90
21744;DHT22;11034;48.556;9.342;2023-06-24T05:49:25;22.90;99.90
21744;DHT22;11034;48.556;9.342;2023-06-24T05:51:53;23.50;99.90
21744;DHT22;11034;48.556;9.342;2023-06-24T05:54:21;25.00;99.90
21744;DHT22;11034;48.556;9.342;2023-06-24T05:56:49;25.70;99.90
21744;DHT22;11034;48.556;9.342;2023-06-24T05:59:17;26.30;99.90
21744;DHT22;11034;48.556;9.342;2023-06-24T06:01:46;26.60;99.90
21744;DHT22;11034;48.556;9.342;2023-06-24T06:04:14;26.70;99.90
21744;DHT22;11034;48.556;9.342;2023-06-24T06:06:43;26.60;99.90
21744;DHT22;11034;48.556;9.342;2023-06-24T06:09:11;27.20;99.90
21744;DHT22;11034;48.556;9.342;2023-06-24T06:11:39;26.70;99.90
21744;DHT22;11034;48.556;9.342;2023-06-24T06:14:07;26.80;99.90
21744;DHT22;11034;48.556;9.342;2023-06-24T06:16:35;27.30;99.90
21744;DHT22;11034;48.556;9.342;2023-06-24T06:19:04;27.80;99.90
21744;DHT22;11034;48.556;9.342;2023-06-24T06:21:32;28.30;99.90
21744;DHT22;11034;48.556;9.342;2023-06-24T06:24:00;26.60;99.90
21744;DHT22;11034;48.556;9.342;2023-06-24T06:26:28;27.60;99.90
21744;DHT22;11034;48.556;9.342;2023-06-24T06:28:56;28.60;99.90
21744;DHT22;11034;48.556;9.342;2023-06-24T06:31:24;28.30;99.90
21744;DHT22;11034;48.556;9.342;2023-06-24T06:33:53;29.00;99.90
21744;DHT22;11034;48.556;9.342;2023-06-24T06:36:22;29.40;99.90
21744;DHT22;11034;48.556;9.342;2023-06-24T06:38:50;29.10;99.90
21744;DHT22;11034;48.556;9.342;2023-06-24T06:41:18;29.80;99.90
21744;DHT22;11034;48.556;9.342;2023-06-24T06:43:51;29.80;99.90
21744;DHT22;11034;48.556;9.342;2023-06-24T06:46:19;30.40;99.90
21744;DHT22;11034;48.556;9.342;2023-06-24T06:48:47;30.30;99.90
21744;DHT22;11034;48.556;9.342;2023-06-24T06:51:16;30.20;99.90
21744;DHT22;11034;48.556;9.342;2023-06-24T06:53:46;30.00;99.90
21744;DHT22;11034;48.556;9.342;2023-06-24T06:56:18;29.30;99.90
21744;DHT22;11034;48.556;9.342;2023-06-24T06:58:46;29.40;99.90
21744;DHT22;11034;48.556;9.342;2023-06-24T07:01:14;29.30;99.90
21744;DHT22;11034;48.556;9.342;2023-06-24T07:03:42;29.20;99.90
21744;DHT22;11034;48.556;9.342;2023-06-24T07:06:10;29.00;99.90
21744;DHT22;11034;48.556;9.342;2023-06-24T07:08:38;28.70;99.90
21744;DHT22;11034;48.556;9.342;2023-06-24T07:11:08;28.80;99.90
21744;DHT22;11034;48.556;9.342;2023-06-24T07:13:36;28.70;99.90
21744;DHT22;11034;48.556;9.342;2023-06-24T07:16:04;28.50;99.90
21744;DHT22;11034;48.556;9.342;2023-06-24T07:18:32;28.40;99.90
21744;DHT22;11034;48.556;9.342;2023-06-24T07:21:00;27.10;99.90
21744;DHT22;11034;48.556;9.342;2023-06-24T07:23:29;27.60;99.90
21744;DHT22;11034;48.556;9.342;2023-06-24T07:25:57;27.90;99.90
21744;DHT22;11034;48.556;9.342;2023-06-24T07:28:30;28.60;99.90
21744;DHT22;11034;48.556;9.342;2023-06-24T07:30:58;29.10;99.90
21744;DHT22;11034;48.556;9.342;2023-06-24T07:33:26;29.20;99.90
21744;DHT22;11034;48.556;9.342;2023-06-24T07:35:57;28.80;99.90
21744;DHT22;11034;48.556;9.342;2023-06-24T07:38:25;28.20;99.90
21744;DHT22;11034;48.556;9.342;2023-06-24T07:40:53;27.20;99.90
21744;DHT22;11034;48.556;9.342;2023-06-24T07:43:21;27.30;99.90
21744;DHT22;11034;48.556;9.342;2023-06-24T07:45:50;27.40;99.90
21744;DHT22;11034;48.556;9.342;2023-06-24T07:48:18;27.50;99.90
21744;DHT22;11034;48.556;9.342;2023-06-24T07:50:47;26.80;99.90
21744;DHT22;11034;48.556;9.342;2023-06-24T07:53:15;27.40;99.90
21744;DHT22;11034;48.556;9.342;2023-06-24T07:55:43;27.50;99.90
21744;DHT22;11034;48.556;9.342;2023-06-24T07:58:11;27.40;99.90
21744;DHT22;11034;48.556;9.342;2023-06-24T08:00:40;26.70;99.90
21744;DHT22;11034;48.556;9.342;2023-06-24T08:03:09;27.20;99.90
21744;DHT22;11034;48.556;9.342;2023-06-24T08:05:37;28.10;99.90
21744;DHT22;11034;48.556;9.342;2023-06-24T08:08:06;28.20;99.90
21744;DHT22;11034;48.556;9.342;2023-06-24T08:10:34;28.30;99.90
21744;DHT22;11034;48.556;9.342;2023-06-24T08:13:02;28.40;99.90
21744;DHT22;11034;48.556;9.342;2023-06-24T08:15:30;28.50;99.90
21744;DHT22;11034;48.556;9.342;2023-06-24T08:17:58;27.90;99.90
21744;DHT22;11034;48.556;9.342;2023-06-24T08:20:27;27.80;99.90
21744;DHT22;11034;48.556;9.342;2023-06-24T08:22:55;28.40;99.90
21744;DHT22;11034;48.556;9.342;2023-06-24T08:25:24;28.80;99.90
21744;DHT22;11034;48.556;9.342;2023-06-24T08:27:51;28.80;99.90
21744;DHT22;11034;48.556;9.342;2023-06-24T08:30:19;29.00;99.90
21744;DHT22;11034;48.556;9.342;2023-06-24T08:32:47;28.80;99.90
21744;DHT22;11034;48.556;9.342;2023-06-24T08:35:16;28.90;99.90
21744;DHT22;11034;48.556;9.342;2023-06-24T08:37:45;28.60;99.90
21744;DHT22;11034;48.556;9.342;2023-06-24T08:40:13;28.40;99.90
21744;DHT22;11034;48.556;9.342;2023-06-24T08:42:43;27.50;99.90
21744;DHT22;11034;48.556;9.342;2023-06-24T08:45:11;27.40;99.90
21744;DHT22;11034;48.556;9.342;2023-06-24T08:47:40;27.80;99.90
21744;DHT22;11034;48.556;9.342;2023-06-24T08:50:11;28.00;99.90
21744;DHT22;11034;48.556;9.342;2023-06-24T08:52:45;27.40;99.90
21744;DHT22;11034;48.556;9.342;2023-06-24T08:55:19;26.80;99.90
21744;DHT22;11034;48.556;9.342;2023-06-24T08:57:50;26.40;99.90
21744;DHT22;11034;48.556;9.342;2023-06-24T09:00:18;26.60;99.90
21744;DHT22;11034;48.556;9.342;2023-06-24T09:02:46;26.50;99.90
21744;DHT22;11034;48.556;9.342;2023-06-24T09:05:15;25.70;99.90
21744;DHT22;11034;48.556;9.342;2023-06-24T09:07:43;25.70;99.90
21744;DHT22;11034;48.556;9.342;2023-06-24T09:10:30;25.60;99.90
21744;DHT22;11034;48.556;9.342;2023-06-24T09:12:59;25.50;99.90
21744;DHT22;11034;48.556;9.342;2023-06-24T09:15:31;25.80;99.90
21744;DHT22;11034;48.556;9.342;2023-06-24T09:18:04;25.90;99.90
21744;DHT22;11034;48.556;9.342;2023-06-24T09:20:33;26.00;99.90
21744;DHT22;11034;48.556;9.342;2023-06-24T09:23:06;25.80;99.90
21744;DHT22;11034;48.556;9.342;2023-06-24T09:25:38;25.70;99.90
21744;DHT22;11034;48.556;9.342;2023-06-24T09:28:07;25.30;99.90
21744;DHT22;11034;48.556;9.342;2023-06-24T09:30:35;25.60;99.90
21744;DHT22;11034;48.556;9.342;2023-06-24T09:33:03;25.10;99.90
21744;DHT22;11034;48.556;9.342;2023-06-24T09:35:35;24.90;99.90
21744;DHT22;11034;48.556;9.342;2023-06-24T09:38:03;24.80;99.90
21744;DHT22;11034;48.556;9.342;2023-06-24T09:40:35;24.80;99.90
21744;DHT22;11034;48.556;9.342;2023-06-24T09:43:05;24.60;99.90
21744;DHT22;11034;48.556;9.342;2023-06-24T09:45:33;24.30;99.90
21744;DHT22;11034;48.556;9.342;2023-06-24T09:48:02;24.00;99.90
21744;DHT22;11034;48.556;9.342;2023-06-24T09:50:33;23.80;99.90
21744;DHT22;11034;48.556;9.342;2023-06-24T09:53:01;24.00;99.90
21744;DHT22;11034;48.556;9.342;2023-06-24T09:55:31;24.50;99.90
21744;DHT22;11034;48.556;9.342;2023-06-24T09:58:00;25.00;99.90
21744;DHT22;11034;48.556;9.342;2023-06-24T10:00:29;25.30;99.90
21744;DHT22;11034;48.556;9.342;2023-06-24T10:02:58;25.50;99.90
21744;DHT22;11034;48.556;9.342;2023-06-24T10:05:27;25.60;99.90
21744;DHT22;11034;48.556;9.342;2023-06-24T10:07:55;25.00;99.90
21744;DHT22;11034;48.556;9.342;2023-06-24T10:10:23;25.10;99.90
21744;DHT22;11034;48.556;9.342;2023-06-24T10:12:51;25.70;99.90
21744;DHT22;11034;48.556;9.342;2023-06-24T10:15:21;25.70;98.60
21744;DHT22;11034;48.556;9.342;2023-06-24T10:17:51;25.60;99.80
21744;DHT22;11034;48.556;9.342;2023-06-24T10:20:40;25.40;99.90
21744;DHT22;11034;48.556;9.342;2023-06-24T10:23:08;25.70;99.90
21744;DHT22;11034;48.556;9.342;2023-06-24T10:25:36;25.30;99.90
21744;DHT22;11034;48.556;9.342;2023-06-24T10:28:05;24.90;99.90
21744;DHT22;11034;48.556;9.342;2023-06-24T10:30:33;24.80;99.90
21744;DHT22;11034;48.556;9.342;2023-06-24T10:33:10;25.20;99.90
21744;DHT22;11034;48.556;9.342;2023-06-24T10:35:42;25.40;99.90
21744;DHT22;11034;48.556;9.342;2023-06-24T10:38:11;25.70;99.90
21744;DHT22;11034;48.556;9.342;2023-06-24T10:40:39;25.40;99.40
21744;DHT22;11034;48.556;9.342;2023-06-24T10:43:26;25.40;98.50
21744;DHT22;11034;48.556;9.342;2023-06-24T10:45:55;25.40;99.60
21744;DHT22;11034;48.556;9.342;2023-06-24T10:48:25;25.20;99.40
21744;DHT22;11034;48.556;9.342;2023-06-24T10:50:53;25.40;99.90
21744;DHT22;11034;48.556;9.342;2023-06-24T10:53:22;25.30;99.90
21744;DHT22;11034;48.556;9.342;2023-06-24T10:55:50;25.40;99.80
21744;DHT22;11034;48.556;9.342;2023-06-24T10:58:18;25.40;99.80
21744;DHT22;11034;48.556;9.342;2023-06-24T11:00:46;25.50;99.90
21744;DHT22;11034;48.556;9.342;2023-06-24T11:03:16;25.70;99.70
21744;DHT22;11034;48.556;9.342;2023-06-24T11:05:48;25.80;99.20
21744;DHT22;11034;48.556;9.342;2023-06-24T11:08:16;25.70;98.70
21744;DHT22;11034;48.556;9.342;2023-06-24T11:10:45;25.70;99.30
21744;DHT22;11034;48.556;9.342;2023-06-24T11:13:14;25.70;98.20
21744;DHT22;11034;48.556;9.342;2023-06-24T11:15:42;25.40;98.60
21744;DHT22;11034;48.556;9.342;2023-06-24T11:18:10;25.30;98.80
21744;DHT22;11034;48.556;9.342;2023-06-24T11:20:39;25.40;99.30
21744;DHT22;11034;48.556;9.342;2023-06-24T11:23:13;25.30;99.70
21744;DHT22;11034;48.556;9.342;2023-06-24T11:25:42;25.60;99.90
21744;DHT22;11034;48.556;9.342;2023-06-24T11:28:14;26.00;99.70
21744;DHT22;11034;48.556;9.342;2023-06-24T11:30:46;26.40;99.30
21744;DHT22;11034;48.556;9.342;2023-06-24T11:33:26;26.50;99.00
21744;DHT22;11034;48.556;9.342;2023-06-24T11:35:54;26.20;98.10
21744;DHT22;11034;48.556;9.342;2023-06-24T11:38:24;25.60;97.70
21744;DHT22;11034;48.556;9.342;2023-06-24T11:40:59;25.10;98.10
21744;DHT22;11034;48.556;9.342;2023-06-24T11:43:27;25.20;98.60
21744;DHT22;11034;48.556;9.342;2023-06-24T11:45:55;25.10;98.40
21744;DHT22;11034;48.556;9.342;2023-06-24T11:48:27;25.50;97.80
21744;DHT22;11034;48.556;9.342;2023-06-24T11:50:56;25.40;98.50
21744;DHT22;11034;48.556;9.342;2023-06-24T11:53:32;25.20;97.80
21744;DHT22;11034;48.556;9.342;2023-06-24T11:56:08;25.30;97.70
21744;DHT22;11034;48.556;9.342;2023-06-24T11:58:36;25.60;97.60
21744;DHT22;11034;48.556;9.342;2023-06-24T12:01:06;25.60;98.60
21744;DHT22;11034;48.556;9.342;2023-06-24T12:03:34;25.70;98.50
21744;DHT22;11034;48.556;9.342;2023-06-24T12:06:03;25.60;97.90
21744;DHT22;11034;48.556;9.342;2023-06-24T12:08:32;25.80;98.60
21744;DHT22;11034;48.556;9.342;2023-06-24T12:11:17;25.80;98.10
21744;DHT22;11034;48.556;9.342;2023-06-24T12:13:45;25.70;97.20
21744;DHT22;11034;48.556;9.342;2023-06-24T12:16:13;25.40;97.70
21744;DHT22;11034;48.556;9.342;2023-06-24T12:18:41;25.40;97.40
21744;DHT22;11034;48.556;9.342;2023-06-24T12:21:11;25.70;97.90
21744;DHT22;11034;48.556;9.342;2023-06-24T12:23:41;25.60;96.80
21744;DHT22;11034;48.556;9.342;2023-06-24T12:26:10;25.70;98.30
21744;DHT22;11034;48.556;9.342;2023-06-24T12:28:39;26.00;98.20
21744;DHT22;11034;48.556;9.342;2023-06-24T12:31:07;26.30;96.80
21744;DHT22;11034;48.556;9.342;2023-06-24T12:33:35;26.10;97.80
21744;DHT22;11034;48.556;9.342;2023-06-24T12:36:03;26.30;97.20
21744;DHT22;11034;48.556;9.342;2023-06-24T12:38:31;26.00;97.40
21744;DHT22;11034;48.556;9.342;2023-06-24T12:41:01;25.60;98.60
21744;DHT22;11034;48.556;9.342;2023-06-24T12:43:29;25.80;96.30
21744;DHT22;11034;48.556;9.342;2023-06-24T12:45:57;25.80;97.10
21744;DHT22;11034;48.556;9.342;2023-06-24T12:48:25;25.90;95.70
21744;DHT22;11034;48.556;9.342;2023-06-24T12:50:54;26.00;95.90
21744;DHT22;11034;48.556;9.342;2023-06-24T12:53:22;26.20;96.90
21744;DHT22;11034;48.556;9.342;2023-06-24T12:55:50;26.10;95.90
21744;DHT22;11034;48.556;9.342;2023-06-24T12:58:24;26.00;97.00
21744;DHT22;11034;48.556;9.342;2023-06-24T13:00:53;25.90;96.80
21744;DHT22;11034;48.556;9.342;2023-06-24T13:03:21;26.10;96.30
21744;DHT22;11034;48.556;9.342;2023-06-24T13:05:49;26.20;96.30
21744;DHT22;11034;48.556;9.342;2023-06-24T13:08:17;26.40;96.20
21744;DHT22;11034;48.556;9.342;2023-06-24T13:10:45;26.70;96.00
21744;DHT22;11034;48.556;9.342;2023-06-24T13:13:13;26.70;96.00
21744;DHT22;11034;48.556;9.342;2023-06-24T13:15:43;26.70;96.00
21744;DHT22;11034;48.556;9.342;2023-06-24T13:18:11;26.30;96.40
21744;DHT22;11034;48.556;9.342;2023-06-24T13:20:39;26.20;97.60
21744;DHT22;11034;48.556;9.342;2023-06-24T13:23:07;26.10;97.30
21744;DHT22;11034;48.556;9.342;2023-06-24T13:25:36;25.80;96.50
21744;DHT22;11034;48.556;9.342;2023-06-24T13:28:04;25.80;96.50
21744;DHT22;11034;48.556;9.342;2023-06-24T13:30:32;25.80;95.90
21744;DHT22;11034;48.556;9.342;2023-06-24T13:33:02;25.90;95.80
21744;DHT22;11034;48.556;9.342;2023-06-24T13:35:31;25.90;95.70
21744;DHT22;11034;48.556;9.342;2023-06-24T13:37:59;26.00;96.40
21744;DHT22;11034;48.556;9.342;2023-06-24T13:40:27;26.10;96.20
21744;DHT22;11034;48.556;9.342;2023-06-24T13:42:55;26.30;95.70
21744;DHT22;11034;48.556;9.342;2023-06-24T13:45:23;26.50;95.60
21744;DHT22;11034;48.556;9.342;2023-06-24T13:47:51;26.30;96.40
21744;DHT22;11034;48.556;9.342;2023-06-24T13:50:21;26.20;96.50
21744;DHT22;11034;48.556;9.342;2023-06-24T13:52:49;25.90;96.00
21744;DHT22;11034;48.556;9.342;2023-06-24T13:55:17;25.90;96.30
21744;DHT22;11034;48.556;9.342;2023-06-24T13:57:45;26.00;96.80
21744;DHT22;11034;48.556;9.342;2023-06-24T14:00:14;26.10;96.20
21744;DHT22;11034;48.556;9.342;2023-06-24T14:02:43;26.00;96.50
21744;DHT22;11034;48.556;9.342;2023-06-24T14:05:11;26.00;96.60
21744;DHT22;11034;48.556;9.342;2023-06-24T14:07:40;26.10;97.30
21744;DHT22;11034;48.556;9.342;2023-06-24T14:10:09;26.30;97.20
21744;DHT22;11034;48.556;9.342;2023-06-24T14:12:37;26.20;96.20
21744;DHT22;11034;48.556;9.342;2023-06-24T14:15:09;26.00;96.40
21744;DHT22;11034;48.556;9.342;2023-06-24T14:17:37;26.00;95.10
21744;DHT22;11034;48.556;9.342;2023-06-24T14:20:06;25.90;96.60
21744;DHT22;11034;48.556;9.342;2023-06-24T14:22:35;26.00;96.20
21744;DHT22;11034;48.556;9.342;2023-06-24T14:25:05;25.90;95.60
21744;DHT22;11034;48.556;9.342;2023-06-24T14:27:33;26.10;95.70
21744;DHT22;11034;48.556;9.342;2023-06-24T14:30:01;26.10;95.80
21744;DHT22;11034;48.556;9.342;2023-06-24T14:32:29;26.10;97.40
21744;DHT22;11034;48.556;9.342;2023-06-24T14:34:57;26.20;96.20
21744;DHT22;11034;48.556;9.342;2023-06-24T14:37:25;26.20;96.10
21744;DHT22;11034;48.556;9.342;2023-06-24T14:39:54;26.30;95.80
21744;DHT22;11034;48.556;9.342;2023-06-24T14:42:23;26.40;96.00
21744;DHT22;11034;48.556;9.342;2023-06-24T14:44:51;26.60;95.40
21744;DHT22;11034;48.556;9.342;2023-06-24T14:47:19;26.60;96.80
21744;DHT22;11034;48.556;9.342;2023-06-24T14:49:48;26.50;94.60
21744;DHT22;11034;48.556;9.342;2023-06-24T14:52:16;26.50;95.60
21744;DHT22;11034;48.556;9.342;2023-06-24T14:54:45;26.50;94.30
21744;DHT22;11034;48.556;9.342;2023-06-24T14:57:14;26.40;95.20
21744;DHT22;11034;48.556;9.342;2023-06-24T14:59:44;26.20;95.30
21744;DHT22;11034;48.556;9.342;2023-06-24T15:02:12;26.20;94.70
21744;DHT22;11034;48.556;9.342;2023-06-24T15:04:40;26.20;95.70
21744;DHT22;11034;48.556;9.342;2023-06-24T15:07:08;26.20;94.30
21744;DHT22;11034;48.556;9.342;2023-06-24T15:09:36;26.30;95.00
21744;DHT22;11034;48.556;9.342;2023-06-24T15:12:05;26.20;95.10
21744;DHT22;11034;48.556;9.342;2023-06-24T15:14:34;26.20;95.20
21744;DHT22;11034;48.556;9.342;2023-06-24T15:17:04;26.20;95.20
21744;DHT22;11034;48.556;9.342;2023-06-24T15:19:32;26.20;95.20
21744;DHT22;11034;48.556;9.342;2023-06-24T15:22:00;26.20;95.60
21744;DHT22;11034;48.556;9.342;2023-06-24T15:24:28;26.30;94.60
21744;DHT22;11034;48.556;9.342;2023-06-24T15:26:56;26.50;94.30
21744;DHT22;11034;48.556;9.342;2023-06-24T15:29:25;26.50;94.60
21744;DHT22;11034;48.556;9.342;2023-06-24T15:31:53;26.60;94.80
21744;DHT22;11034;48.556;9.342;2023-06-24T15:34:23;26.60;95.10
21744;DHT22;11034;48.556;9.342;2023-06-24T15:36:51;26.50;94.70
21744;DHT22;11034;48.556;9.342;2023-06-24T15:39:19;26.60;95.10
21744;DHT22;11034;48.556;9.342;2023-06-24T15:41:47;26.50;95.10
21744;DHT22;11034;48.556;9.342;2023-06-24T15:44:17;26.60;94.60
21744;DHT22;11034;48.556;9.342;2023-06-24T15:46:45;26.40;95.20